createdAt,value
2018-06-25T00:02:16.373Z,93583.66
2018-06-25T00:04:44.499Z,93583.81
2018-06-25T00:07:12.465Z,93585.97
2018-06-25T00:09:40.511Z,93590.61
2018-06-25T00:12:08.628Z,93587.34
2018-06-25T00:14:36.692Z,93586.23
2018-06-25T00:17:04.739Z,93588.45
2018-06-25T00:19:32.838Z,93588.45
2018-06-25T00:22:00.870Z,93583.25
2018-06-25T00:24:28.964Z,93579.91
2018-06-25T00:26:57.064Z,93581.19
2018-06-25T00:29:25.053Z,93585.31
2018-06-25T00:31:53.168Z,93581.66
2018-06-25T00:34:21.299Z,93575.16
2018-06-25T00:36:49.374Z,93573.19
2018-06-25T00:39:17.351Z,93571.73
2018-06-25T00:41:45.389Z,93576.20
2018-06-25T00:44:16.662Z,93575.44
2018-06-25T00:49:26.390Z,93574.61
2018-06-25T00:51:54.414Z,93574.61
2018-06-25T00:54:22.482Z,93563.86
2018-06-25T00:56:50.505Z,93569.98
2018-06-25T00:59:29.622Z,93571.19
2018-06-25T01:01:57.637Z,93573.05
2018-06-25T01:04:25.718Z,93563.00
2018-06-25T01:06:53.816Z,93562.84
2018-06-25T01:09:21.853Z,93561.94
2018-06-25T01:11:49.912Z,93551.38
2018-06-25T01:14:17.947Z,93555.55
2018-06-25T01:16:45.954Z,93557.16
2018-06-25T01:19:14.034Z,93561.63
2018-06-25T01:21:42.036Z,93552.47
2018-06-25T01:24:10.083Z,93552.39
2018-06-25T01:26:38.232Z,93554.09
2018-06-25T01:29:06.204Z,93556.14
2018-06-25T01:31:34.575Z,93551.33
2018-06-25T01:34:02.564Z,93558.10
2018-06-25T01:36:30.677Z,93563.86
2018-06-25T01:38:58.816Z,93561.47
2018-06-25T01:41:26.844Z,93557.25
2018-06-25T01:43:54.847Z,93560.14
2018-06-25T01:46:22.878Z,93556.98
2018-06-25T01:48:50.836Z,93557.29
2018-06-25T01:51:18.857Z,93555.25
2018-06-25T01:53:46.925Z,93549.88
2018-06-25T01:56:14.949Z,93554.34
2018-06-25T01:58:43.031Z,93553.86
2018-06-25T02:01:11.075Z,93549.14
2018-06-25T02:03:39.144Z,93549.31
2018-06-25T02:06:07.359Z,93548.96
2018-06-25T02:08:35.558Z,93552.20
2018-06-25T02:11:03.652Z,93548.58
2018-06-25T02:13:31.730Z,93547.09
2018-06-25T02:15:59.849Z,93550.81
2018-06-25T02:18:27.877Z,93544.97
2018-06-25T02:20:55.886Z,93559.42
2018-06-25T02:23:23.944Z,93558.50
2018-06-25T02:25:51.955Z,93557.67
2018-06-25T02:28:20.039Z,93554.69
2018-06-25T02:30:48.146Z,93559.53
2018-06-25T02:33:16.146Z,93558.41
2018-06-25T02:35:44.161Z,93562.13
2018-06-25T02:38:12.255Z,93563.52
2018-06-25T02:40:40.323Z,93567.85
2018-06-25T02:43:08.355Z,93568.16
2018-06-25T02:45:36.336Z,93571.02
2018-06-25T02:48:04.363Z,93572.50
2018-06-25T02:50:32.449Z,93568.89
2018-06-25T02:53:00.604Z,93572.70
2018-06-25T02:55:28.594Z,93572.70
2018-06-25T02:57:56.655Z,93570.76
2018-06-25T03:00:24.791Z,93572.70
2018-06-25T03:02:52.831Z,93577.91
2018-06-25T03:05:20.901Z,93575.11
2018-06-25T03:07:48.871Z,93568.33
2018-06-25T03:10:17.024Z,93567.59
2018-06-25T03:12:45.099Z,93572.88
2018-06-25T03:15:13.288Z,93570.09
2018-06-25T03:17:41.394Z,93575.98
2018-06-25T03:20:09.745Z,93573.04
2018-06-25T03:22:37.793Z,93571.25
2018-06-25T03:25:05.787Z,93576.01
2018-06-25T03:27:33.920Z,93575.99
2018-06-25T03:30:02.001Z,93572.20
2018-06-25T03:32:30.257Z,93573.98
2018-06-25T03:34:58.439Z,93578.88
2018-06-25T03:37:26.554Z,93573.81
2018-06-25T03:39:54.586Z,93571.66
2018-06-25T03:42:22.601Z,93572.38
2018-06-25T03:44:50.873Z,93575.14
2018-06-25T03:47:18.924Z,93575.00
2018-06-25T03:49:47.016Z,93575.56
2018-06-25T03:52:15.158Z,93571.75
2018-06-25T03:54:43.297Z,93570.83
2018-06-25T03:57:11.407Z,93579.71
2018-06-25T03:59:39.731Z,93574.41
2018-06-25T04:02:07.887Z,93571.66
2018-06-25T04:04:35.889Z,93571.84
2018-06-25T04:07:04.085Z,93576.25
2018-06-25T04:09:32.110Z,93582.59
2018-06-25T04:12:00.176Z,93586.83
2018-06-25T04:14:28.337Z,93589.79
2018-06-25T04:16:56.755Z,93588.28
2018-06-25T04:19:24.833Z,93597.52
2018-06-25T04:21:52.902Z,93596.03
2018-06-25T04:24:21.211Z,93593.39
2018-06-25T04:26:49.256Z,93596.86
2018-06-25T04:29:17.252Z,93594.52
2018-06-25T04:31:45.418Z,93598.22
2018-06-25T04:34:14.824Z,93595.73
2018-06-25T04:36:42.955Z,93594.67
2018-06-25T04:39:11.171Z,93596.83
2018-06-25T04:41:39.275Z,93593.98
2018-06-25T04:44:07.311Z,93594.41
2018-06-25T04:46:35.290Z,93600.49
2018-06-25T04:49:03.471Z,93598.26
2018-06-25T04:51:31.733Z,93593.09
2018-06-25T04:54:00.147Z,93583.44
2018-06-25T04:56:28.285Z,93590.38
2018-06-25T04:58:56.627Z,93592.27
2018-06-25T05:01:24.852Z,93593.05
2018-06-25T05:03:53.547Z,93598.45
2018-06-25T05:06:22.016Z,93596.95
2018-06-25T05:08:50.166Z,93598.87
2018-06-25T05:11:18.253Z,93606.01
2018-06-25T05:13:47.061Z,93605.59
2018-06-25T05:16:15.862Z,93606.50
2018-06-25T05:18:48.830Z,93601.61
2018-06-25T05:21:19.385Z,93604.02
2018-06-25T05:23:48.693Z,93606.67
2018-06-25T05:26:17.441Z,93612.56
2018-06-25T05:28:46.258Z,93611.75
2018-06-25T05:31:21.961Z,93613.03
2018-06-25T05:33:52.327Z,93618.72
2018-06-25T05:36:21.298Z,93620.86
2018-06-25T05:38:50.150Z,93624.55
2018-06-25T05:41:18.571Z,93617.80
2018-06-25T05:43:47.267Z,93620.88
2018-06-25T05:46:16.240Z,93629.10
2018-06-25T05:48:44.617Z,93629.70
2018-06-25T05:51:13.425Z,93628.62
2018-06-25T05:53:42.085Z,93627.93
2018-06-25T05:56:10.546Z,93629.36
2018-06-25T05:58:38.946Z,93632.18
2018-06-25T06:01:07.523Z,93626.81
2018-06-25T06:03:36.200Z,93635.32
2018-06-25T06:06:05.904Z,93627.71
2018-06-25T06:08:34.486Z,93627.83
2018-06-25T06:11:03.704Z,93625.34
2018-06-25T06:13:32.172Z,93622.56
2018-06-25T06:16:01.269Z,93623.21
2018-06-25T06:18:29.963Z,93626.95
2018-06-25T06:20:58.581Z,93622.91
2018-06-25T06:23:27.076Z,93624.42
2018-06-25T06:25:56.143Z,93616.02
2018-06-25T06:28:24.533Z,93620.53
2018-06-25T06:30:53.041Z,93615.05
2018-06-25T06:33:21.567Z,93624.97
2018-06-25T06:35:50.666Z,93620.21
2018-06-25T06:38:19.543Z,93619.10
2018-06-25T06:40:48.383Z,93622.20
2018-06-25T06:43:18.191Z,93616.94
2018-06-25T06:45:47.161Z,93620.42
2018-06-25T06:48:15.929Z,93616.20
2018-06-25T06:50:44.927Z,93615.64
2018-06-25T06:53:13.492Z,93616.27
2018-06-25T06:55:42.210Z,93613.80
2018-06-25T06:58:11.195Z,93619.19
2018-06-25T07:00:39.866Z,93622.86
2018-06-25T07:03:08.735Z,93623.22
2018-06-25T07:05:37.743Z,93621.63
2018-06-25T07:08:06.561Z,93622.76
2018-06-25T07:10:35.252Z,93623.90
2018-06-25T07:13:04.128Z,93627.50
2018-06-25T07:15:32.780Z,93628.77
2018-06-25T07:18:01.630Z,93624.53
2018-06-25T07:20:30.021Z,93625.48
2018-06-25T07:22:58.318Z,93625.74
2018-06-25T07:25:26.628Z,93621.60
2018-06-25T07:27:55.035Z,93621.48
2018-06-25T07:30:23.591Z,93620.23
2018-06-25T07:32:51.845Z,93612.28
2018-06-25T07:35:20.103Z,93609.75
2018-06-25T07:37:48.364Z,93610.36
2018-06-25T07:40:16.780Z,93620.30
2018-06-25T07:42:45.090Z,93611.89
2018-06-25T07:45:13.207Z,93617.12
2018-06-25T07:47:41.855Z,93612.21
2018-06-25T07:50:10.285Z,93609.03
2018-06-25T07:52:38.579Z,93603.37
2018-06-25T07:55:06.881Z,93610.63
2018-06-25T07:57:35.219Z,93614.65
2018-06-25T08:00:03.935Z,93612.50
2018-06-25T08:02:32.099Z,93607.55
2018-06-25T08:05:00.425Z,93611.44
2018-06-25T08:07:28.658Z,93607.49
2018-06-25T08:09:56.881Z,93612.31
2018-06-25T08:12:25.167Z,93608.37
2018-06-25T08:14:53.450Z,93617.66
2018-06-25T08:17:22.210Z,93613.24
2018-06-25T08:19:50.602Z,93612.97
2018-06-25T08:22:19.151Z,93615.14
2018-06-25T08:24:47.467Z,93615.88
2018-06-25T08:27:16.220Z,93621.66
2018-06-25T08:29:44.452Z,93614.03
2018-06-25T08:32:12.589Z,93608.64
2018-06-25T08:34:40.768Z,93613.05
2018-06-25T08:37:09.028Z,93606.17
2018-06-25T08:39:37.173Z,93616.75
2018-06-25T08:42:05.806Z,93614.14
2018-06-25T08:44:34.437Z,93611.66
2018-06-25T08:47:02.763Z,93594.86
2018-06-25T08:49:31.258Z,93599.80
2018-06-25T08:52:00.006Z,93604.92
2018-06-25T08:54:28.585Z,93602.69
2018-06-25T08:56:57.329Z,93601.46
2018-06-25T08:59:25.640Z,93602.88
2018-06-25T09:01:54.202Z,93605.53
2018-06-25T09:04:22.734Z,93598.11
2018-06-25T09:06:50.964Z,93590.97
2018-06-25T09:09:19.209Z,93593.48
2018-06-25T09:11:47.477Z,93591.69
2018-06-25T09:14:15.813Z,93595.69
2018-06-25T09:16:44.110Z,93589.98
2018-06-25T09:19:12.676Z,93591.98
2018-06-25T09:21:41.201Z,93593.88
2018-06-25T09:24:09.566Z,93586.52
2018-06-25T09:26:41.746Z,93593.13
2018-06-25T09:29:11.259Z,93592.49
2018-06-25T09:31:39.733Z,93592.82
2018-06-25T09:35:11.398Z,93586.17
2018-06-25T09:37:39.740Z,93581.70
2018-06-25T09:40:08.323Z,93587.05
2018-06-25T09:42:36.769Z,93578.90
2018-06-25T09:45:06.553Z,93585.18
2018-06-25T09:47:34.850Z,93580.56
2018-06-25T09:50:03.165Z,93571.30
2018-06-25T09:52:31.617Z,93568.07
2018-06-25T09:55:00.070Z,93567.73
2018-06-25T09:57:28.426Z,93561.93
2018-06-25T09:59:56.717Z,93561.71
2018-06-25T10:02:25.205Z,93567.48
2018-06-25T10:04:53.800Z,93563.67
2018-06-25T10:07:22.861Z,93554.11
2018-06-25T10:09:51.223Z,93562.36
2018-06-25T10:12:19.925Z,93556.34
2018-06-25T10:14:48.537Z,93559.22
2018-06-25T10:17:16.945Z,93551.95
2018-06-25T10:19:45.260Z,93550.77
2018-06-25T10:22:13.625Z,93547.88
2018-06-25T10:24:42.100Z,93543.88
2018-06-25T10:27:10.316Z,93544.30
2018-06-25T10:29:38.964Z,93543.27
2018-06-25T10:32:07.740Z,93533.55
2018-06-25T10:34:36.228Z,93530.06
2018-06-25T10:37:04.785Z,93538.55
2018-06-25T10:39:33.148Z,93539.20
2018-06-25T10:42:01.472Z,93534.08
2018-06-25T10:44:30.466Z,93529.58
2018-06-25T10:46:59.018Z,93532.19
2018-06-25T10:49:27.163Z,93528.98
2018-06-25T10:51:55.477Z,93526.61
2018-06-25T10:54:23.942Z,93526.45
2018-06-25T10:56:52.303Z,93524.31
2018-06-25T10:59:20.885Z,93516.92
2018-06-25T11:01:49.493Z,93520.91
2018-06-25T11:04:17.929Z,93519.06
2018-06-25T11:06:46.097Z,93526.08
2018-06-25T11:09:14.368Z,93524.97
2018-06-25T11:11:42.710Z,93515.00
2018-06-25T11:14:10.910Z,93518.97
2018-06-25T11:16:39.455Z,93519.02
2018-06-25T11:19:07.679Z,93513.91
2018-06-25T11:21:35.835Z,93519.69
2018-06-25T11:24:04.357Z,93512.33
2018-06-25T11:26:32.780Z,93517.38
2018-06-25T11:29:01.081Z,93499.41
2018-06-25T11:31:29.436Z,93497.72
2018-06-25T11:33:57.717Z,93497.75
2018-06-25T11:36:25.950Z,93499.80
2018-06-25T11:38:54.328Z,93497.23
2018-06-25T11:41:22.773Z,93503.32
2018-06-25T11:43:52.278Z,93495.62
2018-06-25T11:46:20.581Z,93488.28
2018-06-25T11:48:48.711Z,93485.73
2018-06-25T11:51:17.182Z,93487.66
2018-06-25T11:53:46.323Z,93484.02
2018-06-25T11:56:14.910Z,93483.77
2018-06-25T11:58:43.265Z,93466.64
2018-06-25T12:01:11.552Z,93486.81
2018-06-25T12:03:40.538Z,93469.58
2018-06-25T12:06:09.040Z,93476.59
2018-06-25T12:08:37.529Z,93466.89
2018-06-25T12:11:06.364Z,93461.98
2018-06-25T12:13:34.813Z,93457.40
2018-06-25T12:16:03.307Z,93454.88
2018-06-25T12:18:31.783Z,93452.48
2018-06-25T12:21:00.170Z,93445.85
2018-06-25T12:23:28.833Z,93452.22
2018-06-25T12:25:57.282Z,93452.55
2018-06-25T12:28:25.879Z,93443.78
2018-06-25T12:30:54.782Z,93441.84
2018-06-25T12:33:23.073Z,93439.11
2018-06-25T12:35:51.373Z,93452.39
2018-06-25T12:38:19.752Z,93448.80
2018-06-25T12:40:48.273Z,93453.46
2018-06-25T12:43:16.733Z,93449.50
2018-06-25T12:45:44.971Z,93455.34
2018-06-25T12:48:13.446Z,93440.28
2018-06-25T12:50:41.965Z,93453.52
2018-06-25T12:53:10.306Z,93453.13
2018-06-25T12:55:38.653Z,93454.73
2018-06-25T12:58:06.872Z,93454.03
2018-06-25T13:00:35.704Z,93448.08
2018-06-25T13:03:03.936Z,93453.80
2018-06-25T13:05:32.237Z,93454.69
2018-06-25T13:08:00.536Z,93454.17
2018-06-25T13:10:28.972Z,93452.93
2018-06-25T13:12:57.683Z,93450.84
2018-06-25T13:15:25.913Z,93454.66
2018-06-25T13:17:54.213Z,93447.32
2018-06-25T13:20:22.505Z,93441.88
2018-06-25T13:22:50.888Z,93439.80
2018-06-25T13:25:19.209Z,93436.67
2018-06-25T13:27:47.457Z,93434.96
2018-06-25T13:30:15.697Z,93429.27
2018-06-25T13:32:44.028Z,93428.66
2018-06-25T13:35:12.225Z,93422.97
2018-06-25T13:37:40.397Z,93424.75
2018-06-25T13:40:08.979Z,93416.68
2018-06-25T13:42:37.281Z,93406.09
2018-06-25T13:45:05.523Z,93423.02
2018-06-25T13:47:33.851Z,93420.16
2018-06-25T13:50:02.038Z,93408.27
2018-06-25T13:52:30.161Z,93412.27
2018-06-25T13:54:58.436Z,93397.06
2018-06-25T13:57:26.710Z,93398.86
2018-06-25T13:59:54.902Z,93395.10
2018-06-25T14:02:23.036Z,93399.09
2018-06-25T14:04:51.335Z,93402.57
2018-06-25T14:07:19.458Z,93399.97
2018-06-25T14:09:47.682Z,93406.25
2018-06-25T14:12:15.881Z,93405.16
2018-06-25T14:14:44.326Z,93400.41
2018-06-25T14:17:12.938Z,93403.89
2018-06-25T14:19:41.150Z,93410.14
2018-06-25T14:22:09.375Z,93401.36
2018-06-25T14:24:43.178Z,93399.92
2018-06-25T14:27:12.308Z,93398.72
2018-06-25T14:29:40.566Z,93397.91
2018-06-25T14:32:14.475Z,93398.30
2018-06-25T14:34:47.609Z,93401.27
2018-06-25T14:37:16.374Z,93398.95
2018-06-25T14:39:44.736Z,93387.28
2018-06-25T14:42:13.310Z,93390.83
2018-06-25T14:44:41.513Z,93386.06
2018-06-25T14:47:09.984Z,93384.89
2018-06-25T14:49:38.369Z,93392.69
2018-06-25T14:52:06.499Z,93386.06
2018-06-25T14:54:35.008Z,93393.34
2018-06-25T14:57:03.466Z,93395.32
2018-06-25T14:59:31.986Z,93393.45
2018-06-25T15:02:00.409Z,93401.64
2018-06-25T15:04:28.634Z,93389.23
2018-06-25T15:06:56.972Z,93389.05
2018-06-25T15:09:25.398Z,93404.69
2018-06-25T15:11:53.602Z,93396.10
2018-06-25T15:14:21.899Z,93399.25
2018-06-25T15:16:50.389Z,93388.69
2018-06-25T15:19:18.653Z,93389.49
2018-06-25T15:21:46.890Z,93388.91
2018-06-25T15:24:15.241Z,93387.73
2018-06-25T15:26:43.571Z,93389.19
2018-06-25T15:29:11.785Z,93386.53
2018-06-25T15:31:40.122Z,93388.96
2018-06-25T15:34:08.470Z,93386.52
2018-06-25T15:36:36.700Z,93385.22
2018-06-25T15:39:08.249Z,93388.22
2018-06-25T15:41:36.911Z,93387.73
2018-06-25T15:44:05.234Z,93386.25
2018-06-25T15:46:33.752Z,93390.70
2018-06-25T15:49:01.951Z,93394.16
2018-06-25T15:51:30.365Z,93395.34
2018-06-25T15:53:58.835Z,93401.12
2018-06-25T15:56:27.133Z,93396.30
2018-06-25T15:58:55.472Z,93405.68
2018-06-25T16:01:23.616Z,93410.27
2018-06-25T16:03:52.009Z,93413.08
2018-06-25T16:06:20.516Z,93411.02
2018-06-25T16:08:48.643Z,93403.44
2018-06-25T16:11:16.893Z,93402.78
2018-06-25T16:13:45.325Z,93408.63
2018-06-25T16:16:13.513Z,93408.63
2018-06-25T16:18:41.686Z,93407.94
2018-06-25T16:21:10.091Z,93405.31
2018-06-25T16:23:38.269Z,93402.16
2018-06-25T16:26:06.682Z,93398.59
2018-06-25T16:28:34.866Z,93402.09
2018-06-25T16:31:03.103Z,93396.47
2018-06-25T16:33:31.405Z,93398.70
2018-06-25T16:35:59.721Z,93394.09
2018-06-25T16:38:28.094Z,93388.88
2018-06-25T16:40:57.313Z,93395.61
2018-06-25T16:43:25.689Z,93399.23
2018-06-25T16:45:54.079Z,93397.19
2018-06-25T16:48:22.211Z,93395.73
2018-06-25T16:50:50.800Z,93389.44
2018-06-25T16:53:19.255Z,93396.02
2018-06-25T16:55:47.352Z,93395.21
2018-06-25T16:58:15.488Z,93396.86
2018-06-25T17:00:43.728Z,93402.61
2018-06-25T17:03:11.886Z,93405.53
2018-06-25T17:05:40.060Z,93408.97
2018-06-25T17:08:08.466Z,93407.02
2018-06-25T17:10:36.877Z,93406.60
2018-06-25T17:13:05.090Z,93403.97
2018-06-25T17:15:33.743Z,93401.73
2018-06-25T17:18:03.021Z,93404.42
2018-06-25T17:20:32.184Z,93405.20
2018-06-25T17:23:00.559Z,93402.08
2018-06-25T17:25:33.168Z,93406.18
2018-06-25T17:28:01.396Z,93416.36
2018-06-25T17:30:29.617Z,93410.19
2018-06-25T17:32:57.850Z,93407.12
2018-06-25T17:35:26.019Z,93407.08
2018-06-25T17:37:54.417Z,93411.22
2018-06-25T17:40:22.559Z,93416.37
2018-06-25T17:42:50.757Z,93411.71
2018-06-25T17:45:19.243Z,93415.10
2018-06-25T17:47:47.556Z,93416.53
2018-06-25T17:50:16.459Z,93416.00
2018-06-25T17:52:44.976Z,93417.25
2018-06-25T17:55:13.320Z,93412.45
2018-06-25T17:57:41.650Z,93417.28
2018-06-25T18:00:10.055Z,93422.72
2018-06-25T18:02:38.462Z,93427.31
2018-06-25T18:05:06.800Z,93425.67
2018-06-25T18:07:35.089Z,93433.73
2018-06-25T18:10:03.475Z,93434.27
2018-06-25T18:12:31.925Z,93435.25
2018-06-25T18:15:00.218Z,93434.56
2018-06-25T18:17:28.315Z,93437.38
2018-06-25T18:19:56.660Z,93434.03
2018-06-25T18:22:25.204Z,93438.98
2018-06-25T18:24:53.728Z,93435.43
2018-06-25T18:27:22.187Z,93436.64
2018-06-25T18:29:51.093Z,93432.27
2018-06-25T18:32:19.445Z,93431.11
2018-06-25T18:34:47.643Z,93434.83
2018-06-25T18:37:16.027Z,93443.81
2018-06-25T18:39:44.400Z,93453.83
2018-06-25T18:42:12.630Z,93452.31
2018-06-25T18:44:41.087Z,93454.22
2018-06-25T18:47:09.340Z,93465.06
2018-06-25T18:49:37.621Z,93464.38
2018-06-25T18:52:05.908Z,93464.89
2018-06-25T18:54:34.052Z,93469.78
2018-06-25T18:57:02.300Z,93480.86
2018-06-25T18:59:30.524Z,93483.16
2018-06-25T19:01:58.675Z,93479.13
2018-06-25T19:04:26.841Z,93481.27
2018-06-25T19:06:55.310Z,93480.57
2018-06-25T19:09:23.658Z,93484.61
2018-06-25T19:11:52.052Z,93481.03
2018-06-25T19:14:26.331Z,93477.25
2018-06-25T19:16:54.644Z,93484.02
2018-06-25T19:19:22.938Z,93485.92
2018-06-25T19:21:51.304Z,93486.52
2018-06-25T19:24:19.539Z,93480.92
2018-06-25T19:26:47.818Z,93485.72
2018-06-25T19:29:16.125Z,93487.27
2018-06-25T19:31:44.210Z,93487.38
2018-06-25T19:34:12.512Z,93487.75
2018-06-25T19:36:40.726Z,93491.77
2018-06-25T19:39:11.423Z,93487.58
2018-06-25T19:41:40.056Z,93480.58
2018-06-25T19:44:08.843Z,93490.56
2018-06-25T19:46:37.113Z,93477.77
2018-06-25T19:49:05.904Z,93483.47
2018-06-25T19:51:34.210Z,93483.25
2018-06-25T19:54:02.559Z,93472.90
2018-06-25T19:56:30.801Z,93478.24
2018-06-25T19:58:59.013Z,93470.88
2018-06-25T20:01:27.269Z,93486.45
2018-06-25T20:03:55.747Z,93478.02
2018-06-25T20:06:24.105Z,93479.80
2018-06-25T20:08:52.257Z,93478.24
2018-06-25T20:11:20.618Z,93480.03
2018-06-25T20:13:49.168Z,93481.56
2018-06-25T20:16:17.455Z,93474.42
2018-06-25T20:18:45.879Z,93482.05
2018-06-25T20:21:14.778Z,93465.05
2018-06-25T20:23:43.326Z,93471.25
2018-06-25T20:26:11.580Z,93461.02
2018-06-25T20:28:40.014Z,93466.14
2018-06-25T20:31:08.342Z,93460.09
2018-06-25T20:33:36.728Z,93478.23
2018-06-25T20:36:06.170Z,93469.55
2018-06-25T20:38:34.624Z,93475.91
2018-06-25T20:41:02.776Z,93470.45
2018-06-25T20:43:31.116Z,93480.09
2018-06-25T20:46:03.173Z,93474.14
2018-06-25T20:48:31.578Z,93477.97
2018-06-25T20:50:59.683Z,93479.00
2018-06-25T20:53:27.979Z,93480.77
2018-06-25T20:55:57.051Z,93487.13
2018-06-25T20:58:25.714Z,93478.05
2018-06-25T21:00:53.853Z,93482.89
2018-06-25T21:03:22.044Z,93478.07
2018-06-25T21:05:50.294Z,93456.92
2018-06-25T21:08:18.477Z,93469.73
2018-06-25T21:10:46.812Z,93475.08
2018-06-25T21:13:15.150Z,93468.33
2018-06-25T21:15:43.476Z,93457.16
2018-06-25T21:18:11.773Z,93461.45
2018-06-25T21:20:40.096Z,93459.30
2018-06-25T21:23:08.235Z,93446.83
2018-06-25T21:25:36.481Z,93464.89
2018-06-25T21:28:04.632Z,93460.41
2018-06-25T21:30:32.924Z,93454.03
2018-06-25T21:33:01.301Z,93458.23
2018-06-25T21:35:29.654Z,93453.76
2018-06-25T21:37:57.868Z,93461.22
2018-06-25T21:40:26.293Z,93458.62
2018-06-25T21:42:54.399Z,93450.20
2018-06-25T21:45:22.632Z,93446.77
2018-06-25T21:47:50.784Z,93444.05
2018-06-25T21:50:18.862Z,93442.97
2018-06-25T21:52:47.224Z,93439.89
2018-06-25T21:55:15.323Z,93439.19
2018-06-25T21:57:43.449Z,93438.81
2018-06-25T22:00:12.924Z,93447.48
2018-06-25T22:02:41.194Z,93440.61
2018-06-25T22:05:09.464Z,93438.69
2018-06-25T22:07:37.546Z,93438.98
2018-06-25T22:10:06.258Z,93448.53
2018-06-25T22:12:34.530Z,93433.75
2018-06-25T22:15:02.690Z,93440.64
2018-06-25T22:17:30.782Z,93440.27
2018-06-25T22:19:58.968Z,93433.67
2018-06-25T22:22:27.020Z,93432.75
2018-06-25T22:24:55.136Z,93424.22
2018-06-25T22:27:23.200Z,93434.09
2018-06-25T22:29:51.487Z,93437.87
2018-06-25T22:32:19.924Z,93439.16
2018-06-25T22:34:47.959Z,93442.56
2018-06-25T22:37:16.045Z,93432.94
2018-06-25T22:39:44.146Z,93430.19
2018-06-25T22:42:12.186Z,93427.70
2018-06-25T22:44:40.318Z,93426.25
2018-06-25T22:47:08.459Z,93420.97
2018-06-25T22:49:36.498Z,93422.07
2018-06-25T22:52:04.801Z,93423.73
2018-06-25T22:54:32.924Z,93418.67
2018-06-25T22:57:01.012Z,93422.19
2018-06-25T22:59:29.108Z,93409.82
2018-06-25T23:01:57.199Z,93420.17
2018-06-25T23:04:25.263Z,93412.73
2018-06-25T23:06:53.398Z,93416.00
2018-06-25T23:09:21.479Z,93420.97
2018-06-25T23:11:49.627Z,93416.25
2018-06-25T23:14:17.734Z,93418.88
2018-06-25T23:16:46.006Z,93414.97
2018-06-25T23:19:14.265Z,93404.12
2018-06-25T23:21:42.315Z,93407.72
2018-06-25T23:24:10.413Z,93411.27
2018-06-25T23:26:38.730Z,93414.29
2018-06-25T23:29:06.859Z,93406.16
2018-06-25T23:31:34.989Z,93409.84
2018-06-25T23:34:03.177Z,93404.99
2018-06-25T23:36:31.279Z,93403.88
2018-06-25T23:38:59.424Z,93401.21
2018-06-25T23:41:27.502Z,93406.84
2018-06-25T23:43:55.575Z,93405.33
2018-06-25T23:46:23.813Z,93410.67
2018-06-25T23:48:51.977Z,93409.26
2018-06-25T23:51:19.954Z,93401.13
2018-06-25T23:53:48.041Z,93396.77
2018-06-25T23:56:16.306Z,93391.70
2018-06-25T23:58:44.522Z,93391.27
